PWSweather.com
Personal Weather Stations
Station Observations
KMAMEDFI2
Medfield, MA 02052

Medfield, MA 02052

Lat: 42.1900822, Lon: -71.3296889

Elevation: 138

Station Type: Rainwise WS MK-III

http://www.medfieldweather.com

High Low Average
Temperature 52.9°F11.6°C 37.7°F3.2°C 44.9°F7.2°C
Dew Point 45.3°F7.4°C 34.1°F1.2°C 38.6°F3.7°C
Winds 6.9 mph 11.1 kmh Calm Calm 2.0 mph WSW3.2 kmh WSW
Wind Gusts 11.5 mph18.5 kmh -- 3.0 mph4.8 kmh
Humidity 97% 58% 80%
Pressure 30.18 in1022.0 mb 29.82 in1009.8 mb -
Precipitation 0.07 in1.8 mm - -
Hour Temp Dew Point Humidity Winds Wind Gusts Pressure Precip Precip Rate Daily Precip Total
12:00 AM 41.6°F5.3°C 34.6°F1.4°C 76% 5.8 mph WSW9.3 kmh WSW 6.9 mph11.1 kmh 29.80 in1009.1 mb - 0.00 in0.0 mm 0.00 in0.0 mm
12:10 AM 41.6°F5.3°C 34.9°F1.6°C 77% 9.2 mph SW14.8 kmh SW 15.0 mph24.1 kmh 29.80 in1009.1 mb - 0.00 in0.0 mm 0.00 in0.0 mm
12:20 AM 41.4°F5.2°C 35.1°F1.7°C 78% 4.6 mph W7.4 kmh W 8.1 mph13.0 kmh 29.81 in1009.5 mb - 0.00 in0.0 mm 0.00 in0.0 mm
12:30 AM 41.2°F5.1°C 34.9°F1.6°C 78% 4.6 mph WSW7.4 kmh WSW 5.8 mph9.3 kmh 29.81 in1009.5 mb - 0.00 in0.0 mm 0.00 in0.0 mm
12:40 AM 41.2°F5.1°C 34.9°F1.6°C 78% 3.5 mph WSW5.6 kmh WSW 2.3 mph3.7 kmh 29.82 in1009.8 mb - 0.00 in0.0 mm 0.00 in0.0 mm
12:50 AM 40.9°F4.9°C 35.2°F1.8°C 80% 3.5 mph WSW5.6 kmh WSW 8.1 mph13.0 kmh 29.81 in1009.5 mb - 0.00 in0.0 mm 0.00 in0.0 mm
01:00 AM 40.9°F4.9°C 35.2°F1.8°C 80% 3.5 mph WNW5.6 kmh WNW 2.3 mph3.7 kmh 29.82 in1009.8 mb - 0.00 in0.0 mm 0.00 in0.0 mm
01:10 AM 40.8°F4.9°C 35.1°F1.7°C 80% 3.5 mph WSW5.6 kmh WSW 8.1 mph13.0 kmh 29.82 in1009.8 mb - 0.00 in0.0 mm 0.00 in0.0 mm
01:20 AM 40.8°F4.9°C 35.1°F1.7°C 80% 2.3 mph WSW3.7 kmh WSW 2.3 mph3.7 kmh 29.82 in1009.8 mb - 0.00 in0.0 mm 0.00 in0.0 mm
01:30 AM 40.5°F4.7°C 35.1°F1.7°C 81% 2.3 mph WSW3.7 kmh WSW 5.8 mph9.3 kmh 29.83 in1010.2 mb - 0.00 in0.0 mm 0.00 in0.0 mm
01:40 AM 40.7°F4.8°C 35.3°F1.8°C 81% 4.6 mph WSW7.4 kmh WSW 9.2 mph14.8 kmh 29.82 in1009.8 mb - 0.00 in0.0 mm 0.00 in0.0 mm
01:50 AM 41.1°F5.1°C 35.1°F1.7°C 79% 3.5 mph WNW5.6 kmh WNW 5.8 mph9.3 kmh 29.83 in1010.2 mb - 0.00 in0.0 mm 0.00 in0.0 mm
02:00 AM 41.3°F5.2°C 35.0°F1.7°C 78% 3.5 mph SW5.6 kmh SW 2.3 mph3.7 kmh 29.84 in1010.5 mb - 0.00 in0.0 mm 0.00 in0.0 mm
02:10 AM 41.2°F5.1°C 34.9°F1.6°C 78% 2.3 mph WSW3.7 kmh WSW 6.9 mph11.1 kmh 29.84 in1010.5 mb - 0.00 in0.0 mm 0.00 in0.0 mm
02:20 AM 41.5°F5.3°C 35.2°F1.8°C 78% 5.8 mph WSW9.3 kmh WSW 9.2 mph14.8 kmh 29.84 in1010.5 mb - 0.00 in0.0 mm 0.00 in0.0 mm
02:30 AM 41.8°F5.4°C 35.1°F1.7°C 77% 4.6 mph W7.4 kmh W 6.9 mph11.1 kmh 29.84 in1010.5 mb - 0.00 in0.0 mm 0.00 in0.0 mm
02:40 AM 41.9°F5.5°C 35.2°F1.8°C 77% 2.3 mph WSW3.7 kmh WSW 2.3 mph3.7 kmh 29.84 in1010.5 mb - 0.00 in0.0 mm 0.00 in0.0 mm
02:50 AM 41.9°F5.5°C 34.9°F1.6°C 76% 6.9 mph WSW11.1 kmh WSW 9.2 mph14.8 kmh 29.85 in1010.8 mb - 0.00 in0.0 mm 0.00 in0.0 mm
03:00 AM 41.7°F5.4°C 35.0°F1.7°C 77% 2.3 mph WSW3.7 kmh WSW 2.3 mph3.7 kmh 29.85 in1010.8 mb - 0.00 in0.0 mm 0.00 in0.0 mm
03:10 AM 41.3°F5.2°C 34.7°F1.5°C 77% 3.5 mph W5.6 kmh W 2.3 mph3.7 kmh 29.86 in1011.2 mb - 0.00 in0.0 mm 0.00 in0.0 mm
03:20 AM 41.8°F5.4°C 34.8°F1.6°C 76% 2.3 mph SW3.7 kmh SW 2.3 mph3.7 kmh 29.86 in1011.2 mb - 0.00 in0.0 mm 0.00 in0.0 mm
03:30 AM 42.4°F5.8°C 34.3°F1.3°C 73% 6.9 mph SW11.1 kmh SW 9.2 mph14.8 kmh 29.86 in1011.2 mb - 0.00 in0.0 mm 0.00 in0.0 mm
03:40 AM 42.9°F6.1°C 34.5°F1.4°C 72% 3.5 mph NW5.6 kmh NW 11.5 mph18.5 kmh 29.87 in1011.5 mb - 0.00 in0.0 mm 0.00 in0.0 mm
03:50 AM 42.9°F6.1°C 34.1°F1.2°C 71% 5.8 mph WSW9.3 kmh WSW 9.2 mph14.8 kmh 29.87 in1011.5 mb - 0.00 in0.0 mm 0.00 in0.0 mm
04:00 AM 43.0°F6.1°C 34.6°F1.4°C 72% 1.2 mph WNW1.9 kmh WNW 2.3 mph3.7 kmh 29.87 in1011.5 mb - 0.00 in0.0 mm 0.00 in0.0 mm
04:10 AM 43.1°F6.2°C 34.3°F1.3°C 71% 2.3 mph N3.7 kmh N 3.5 mph5.6 kmh 29.87 in1011.5 mb - 0.00 in0.0 mm 0.00 in0.0 mm
04:20 AM 43.2°F6.2°C 34.4°F1.3°C 71% 3.5 mph WSW5.6 kmh WSW 8.1 mph13.0 kmh 29.87 in1011.5 mb - 0.00 in0.0 mm 0.00 in0.0 mm
04:30 AM 43.4°F6.3°C 34.3°F1.3°C 70% 5.8 mph SW9.3 kmh SW 8.1 mph13.0 kmh 29.88 in1011.9 mb - 0.00 in0.0 mm 0.00 in0.0 mm
04:40 AM 43.4°F6.3°C 35.0°F1.7°C 72% 4.6 mph WSW7.4 kmh WSW 11.5 mph18.5 kmh 29.88 in1011.9 mb - 0.00 in0.0 mm 0.00 in0.0 mm
04:50 AM 43.5°F6.4°C 34.7°F1.5°C 71% 3.5 mph SW5.6 kmh SW 8.1 mph13.0 kmh 29.89 in1012.2 mb - 0.00 in0.0 mm 0.00 in0.0 mm
05:00 AM 43.4°F6.3°C 34.7°F1.5°C 71% 4.6 mph WSW7.4 kmh WSW 6.9 mph11.1 kmh 29.89 in1012.2 mb - 0.00 in0.0 mm 0.00 in0.0 mm
05:10 AM 43.5°F6.4°C 34.7°F1.5°C 71% 3.5 mph WSW5.6 kmh WSW 6.9 mph11.1 kmh 29.90 in1012.5 mb - 0.00 in0.0 mm 0.00 in0.0 mm
05:20 AM 43.1°F6.2°C 35.1°F1.7°C 73% 3.5 mph W5.6 kmh W 3.5 mph5.6 kmh 29.90 in1012.5 mb - 0.00 in0.0 mm 0.00 in0.0 mm
05:30 AM 42.5°F5.8°C 35.2°F1.8°C 75% 1.2 mph S1.9 kmh S 1.2 mph1.9 kmh 29.90 in1012.5 mb - 0.00 in0.0 mm 0.00 in0.0 mm
05:40 AM 41.9°F5.5°C 34.6°F1.4°C 75% 4.6 mph WSW7.4 kmh WSW 2.3 mph3.7 kmh 29.91 in1012.9 mb - 0.00 in0.0 mm 0.00 in0.0 mm
05:50 AM 41.3°F5.2°C 35.0°F1.7°C 78% 1.2 mph WNW1.9 kmh WNW 2.3 mph3.7 kmh 29.91 in1012.9 mb - 0.00 in0.0 mm 0.00 in0.0 mm
06:00 AM 40.8°F4.9°C 34.8°F1.6°C 79% 3.5 mph W5.6 kmh W 2.3 mph3.7 kmh 29.90 in1012.5 mb - 0.00 in0.0 mm 0.00 in0.0 mm
06:10 AM 40.5°F4.7°C 34.8°F1.6°C 80% 1.2 mph SW1.9 kmh SW 1.2 mph1.9 kmh 29.91 in1012.9 mb - 0.00 in0.0 mm 0.00 in0.0 mm
06:20 AM 39.8°F4.3°C 34.8°F1.6°C 82% Calm Calm -- 29.91 in1012.9 mb - 0.00 in0.0 mm 0.00 in0.0 mm
06:30 AM 39.2°F4.0°C 35.1°F1.7°C 85% Calm Calm -- 29.92 in1013.2 mb - 0.00 in0.0 mm 0.00 in0.0 mm
06:40 AM 39.4°F4.1°C 35.6°F2.0°C 86% Calm Calm -- 29.92 in1013.2 mb - 0.00 in0.0 mm 0.00 in0.0 mm
06:50 AM 39.6°F4.2°C 35.5°F1.9°C 85% Calm Calm -- 29.93 in1013.5 mb - 0.00 in0.0 mm 0.00 in0.0 mm
07:00 AM 40.6°F4.8°C 35.5°F1.9°C 82% 1.2 mph SW1.9 kmh SW 2.3 mph3.7 kmh 29.93 in1013.5 mb - 0.00 in0.0 mm 0.00 in0.0 mm
07:10 AM 41.7°F5.4°C 35.3°F1.8°C 78% 2.3 mph W3.7 kmh W 2.3 mph3.7 kmh 29.94 in1013.9 mb - 0.00 in0.0 mm 0.00 in0.0 mm
07:20 AM 42.9°F6.1°C 35.9°F2.2°C 76% 1.2 mph S1.9 kmh S 2.3 mph3.7 kmh 29.94 in1013.9 mb - 0.00 in0.0 mm 0.00 in0.0 mm
07:30 AM 44.2°F6.8°C 36.1°F2.3°C 73% 1.2 mph W1.9 kmh W 2.3 mph3.7 kmh 29.95 in1014.2 mb - 0.00 in0.0 mm 0.00 in0.0 mm
07:40 AM 45.4°F7.4°C 35.8°F2.1°C 69% 3.5 mph NW5.6 kmh NW 3.5 mph5.6 kmh 29.96 in1014.6 mb - 0.00 in0.0 mm 0.00 in0.0 mm
07:50 AM 46.6°F8.1°C 35.8°F2.1°C 66% 5.8 mph SW9.3 kmh SW 8.1 mph13.0 kmh 29.97 in1014.9 mb - 0.00 in0.0 mm 0.00 in0.0 mm
08:00 AM 46.8°F8.2°C 36.4°F2.4°C 67% 2.3 mph WSW3.7 kmh WSW 6.9 mph11.1 kmh 29.98 in1015.2 mb - 0.00 in0.0 mm 0.00 in0.0 mm
08:10 AM 47.2°F8.4°C 36.4°F2.4°C 66% 3.5 mph NNW5.6 kmh NNW 5.8 mph9.3 kmh 29.97 in1014.9 mb - 0.00 in0.0 mm 0.00 in0.0 mm
08:20 AM 48.7°F9.3°C 36.6°F2.6°C 63% 2.3 mph SW3.7 kmh SW 3.5 mph5.6 kmh 29.96 in1014.6 mb - 0.00 in0.0 mm 0.00 in0.0 mm
08:30 AM 48.0°F8.9°C 35.6°F2.0°C 62% 3.5 mph WSW5.6 kmh WSW 6.9 mph11.1 kmh 29.97 in1014.9 mb - 0.00 in0.0 mm 0.00 in0.0 mm
08:40 AM 47.9°F8.8°C 36.3°F2.4°C 64% 1.2 mph WSW1.9 kmh WSW 5.8 mph9.3 kmh 29.97 in1014.9 mb - 0.00 in0.0 mm 0.00 in0.0 mm
08:50 AM 47.8°F8.8°C 36.6°F2.6°C 65% 2.3 mph WSW3.7 kmh WSW 2.3 mph3.7 kmh 29.98 in1015.2 mb - 0.00 in0.0 mm 0.00 in0.0 mm
09:00 AM 48.2°F9.0°C 37.4°F3.0°C 66% 1.2 mph W1.9 kmh W 2.3 mph3.7 kmh 29.98 in1015.2 mb - 0.00 in0.0 mm 0.00 in0.0 mm
09:10 AM 48.6°F9.2°C 36.6°F2.6°C 63% 3.5 mph W5.6 kmh W 6.9 mph11.1 kmh 29.99 in1015.6 mb - 0.00 in0.0 mm 0.00 in0.0 mm
09:20 AM 49.6°F9.8°C 36.6°F2.6°C 61% 3.5 mph SSE5.6 kmh SSE 6.9 mph11.1 kmh 29.98 in1015.2 mb - 0.00 in0.0 mm 0.00 in0.0 mm
09:30 AM 50.1°F10.1°C 36.8°F2.7°C 60% 1.2 mph S1.9 kmh S 6.9 mph11.1 kmh 29.99 in1015.6 mb - 0.00 in0.0 mm 0.00 in0.0 mm
09:40 AM 50.3°F10.2°C 37.4°F3.0°C 61% 2.3 mph SSW3.7 kmh SSW 3.5 mph5.6 kmh 29.99 in1015.6 mb - 0.00 in0.0 mm 0.00 in0.0 mm
09:50 AM 50.1°F10.1°C 37.1°F2.8°C 61% 3.5 mph SW5.6 kmh SW 3.5 mph5.6 kmh 29.99 in1015.6 mb - 0.00 in0.0 mm 0.00 in0.0 mm
10:00 AM 49.9°F9.9°C 36.6°F2.6°C 60% 3.5 mph SSW5.6 kmh SSW 2.3 mph3.7 kmh 29.99 in1015.6 mb - 0.00 in0.0 mm 0.00 in0.0 mm
10:10 AM 49.7°F9.8°C 37.2°F2.9°C 62% 1.2 mph S1.9 kmh S 2.3 mph3.7 kmh 30.00 in1015.9 mb - 0.00 in0.0 mm 0.00 in0.0 mm
10:20 AM 49.5°F9.7°C 37.4°F3.0°C 63% 1.2 mph SSE1.9 kmh SSE 2.3 mph3.7 kmh 30.00 in1015.9 mb - 0.00 in0.0 mm 0.00 in0.0 mm
10:30 AM 50.3°F10.2°C 37.8°F3.2°C 62% 2.3 mph WSW3.7 kmh WSW 2.3 mph3.7 kmh 30.00 in1015.9 mb - 0.00 in0.0 mm 0.00 in0.0 mm
10:40 AM 50.8°F10.4°C 37.4°F3.0°C 60% 3.5 mph SW5.6 kmh SW 5.8 mph9.3 kmh 30.01 in1016.3 mb - 0.00 in0.0 mm 0.00 in0.0 mm
10:50 AM 50.8°F10.4°C 38.2°F3.4°C 62% 3.5 mph SW5.6 kmh SW 5.8 mph9.3 kmh 30.01 in1016.3 mb - 0.00 in0.0 mm 0.00 in0.0 mm
11:00 AM 51.5°F10.8°C 38.5°F3.6°C 61% 3.5 mph SSE5.6 kmh SSE 6.9 mph11.1 kmh 30.02 in1016.6 mb - 0.00 in0.0 mm 0.00 in0.0 mm
11:10 AM 52.0°F11.1°C 38.6°F3.7°C 60% 3.5 mph W5.6 kmh W 8.1 mph13.0 kmh 30.02 in1016.6 mb - 0.00 in0.0 mm 0.00 in0.0 mm
11:20 AM 52.2°F11.2°C 37.9°F3.3°C 58% 4.6 mph NW7.4 kmh NW 9.2 mph14.8 kmh 30.03 in1016.9 mb - 0.00 in0.0 mm 0.00 in0.0 mm
11:30 AM 52.9°F11.6°C 39.0°F3.9°C 59% 2.3 mph NW3.7 kmh NW 5.8 mph9.3 kmh 30.02 in1016.6 mb - 0.00 in0.0 mm 0.00 in0.0 mm
11:40 AM 52.7°F11.5°C 38.8°F3.8°C 59% 2.3 mph S3.7 kmh S 2.3 mph3.7 kmh 30.03 in1016.9 mb - 0.00 in0.0 mm 0.00 in0.0 mm
11:50 AM 52.0°F11.1°C 38.1°F3.4°C 59% 5.8 mph SW9.3 kmh SW 6.9 mph11.1 kmh 30.03 in1016.9 mb - 0.00 in0.0 mm 0.00 in0.0 mm
12:00 PM 51.9°F11.1°C 37.6°F3.1°C 58% 2.3 mph SSE3.7 kmh SSE 2.3 mph3.7 kmh 30.03 in1016.9 mb - 0.00 in0.0 mm 0.00 in0.0 mm
12:10 PM 51.6°F10.9°C 38.5°F3.6°C 61% 3.5 mph W5.6 kmh W 9.2 mph14.8 kmh 30.03 in1016.9 mb - 0.00 in0.0 mm 0.00 in0.0 mm
12:20 PM 51.1°F10.6°C 38.1°F3.4°C 61% 3.5 mph SW5.6 kmh SW 6.9 mph11.1 kmh 30.03 in1016.9 mb - 0.00 in0.0 mm 0.00 in0.0 mm
12:30 PM 51.1°F10.6°C 38.1°F3.4°C 61% 2.3 mph W3.7 kmh W 6.9 mph11.1 kmh 30.04 in1017.3 mb - 0.00 in0.0 mm 0.00 in0.0 mm
12:40 PM 50.4°F10.2°C 38.6°F3.7°C 64% 3.5 mph WSW5.6 kmh WSW 3.5 mph5.6 kmh 30.03 in1016.9 mb - 0.00 in0.0 mm 0.00 in0.0 mm
12:50 PM 50.1°F10.1°C 39.1°F3.9°C 66% 4.6 mph WSW7.4 kmh WSW 8.1 mph13.0 kmh 30.03 in1016.9 mb - 0.00 in0.0 mm 0.00 in0.0 mm
01:00 PM 49.9°F9.9°C 39.0°F3.9°C 66% 3.5 mph SW5.6 kmh SW 5.8 mph9.3 kmh 30.03 in1016.9 mb - 0.00 in0.0 mm 0.00 in0.0 mm
01:10 PM 50.3°F10.2°C 39.4°F4.1°C 66% 4.6 mph WSW7.4 kmh WSW 5.8 mph9.3 kmh 30.03 in1016.9 mb - 0.00 in0.0 mm 0.00 in0.0 mm
01:20 PM 49.9°F9.9°C 40.1°F4.5°C 69% 2.3 mph WSW3.7 kmh WSW 8.1 mph13.0 kmh 30.04 in1017.3 mb - 0.00 in0.0 mm 0.00 in0.0 mm
01:30 PM 49.7°F9.8°C 39.9°F4.4°C 69% 1.2 mph WSW1.9 kmh WSW 2.3 mph3.7 kmh 30.03 in1016.9 mb - 0.00 in0.0 mm 0.00 in0.0 mm
01:40 PM 50.1°F10.1°C 40.3°F4.6°C 69% 1.2 mph WSW1.9 kmh WSW 1.2 mph1.9 kmh 30.03 in1016.9 mb - 0.00 in0.0 mm 0.00 in0.0 mm
01:50 PM 50.0°F10.0°C 39.8°F4.3°C 68% 1.2 mph NW1.9 kmh NW 2.3 mph3.7 kmh 30.03 in1016.9 mb - 0.00 in0.0 mm 0.00 in0.0 mm
02:00 PM 49.9°F9.9°C 40.5°F4.7°C 70% 1.2 mph NW1.9 kmh NW 2.3 mph3.7 kmh 30.03 in1016.9 mb - 0.00 in0.0 mm 0.00 in0.0 mm
02:10 PM 49.9°F9.9°C 41.2°F5.1°C 72% 2.3 mph NW3.7 kmh NW 2.3 mph3.7 kmh 30.04 in1017.3 mb - 0.00 in0.0 mm 0.00 in0.0 mm
02:20 PM 49.7°F9.8°C 40.7°F4.8°C 71% 1.2 mph NNE1.9 kmh NNE 2.3 mph3.7 kmh 30.03 in1016.9 mb - 0.00 in0.0 mm 0.00 in0.0 mm
02:30 PM 49.4°F9.7°C 40.4°F4.7°C 71% 2.3 mph W3.7 kmh W 3.5 mph5.6 kmh 30.04 in1017.3 mb - 0.00 in0.0 mm 0.00 in0.0 mm
02:40 PM 49.2°F9.6°C 40.2°F4.6°C 71% 3.5 mph W5.6 kmh W 5.8 mph9.3 kmh 30.04 in1017.3 mb - 0.00 in0.0 mm 0.00 in0.0 mm
02:50 PM 49.1°F9.5°C 40.5°F4.7°C 72% 3.5 mph WSW5.6 kmh WSW 5.8 mph9.3 kmh 30.03 in1016.9 mb - 0.00 in0.0 mm 0.00 in0.0 mm
03:00 PM 49.2°F9.6°C 40.6°F4.8°C 72% 2.3 mph W3.7 kmh W 2.3 mph3.7 kmh 30.03 in1016.9 mb - 0.00 in0.0 mm 0.00 in0.0 mm
03:10 PM 49.4°F9.7°C 40.7°F4.8°C 72% 2.3 mph W3.7 kmh W 5.8 mph9.3 kmh 30.03 in1016.9 mb - 0.00 in0.0 mm 0.00 in0.0 mm
03:20 PM 49.5°F9.7°C 40.5°F4.7°C 71% 2.3 mph SW3.7 kmh SW 2.3 mph3.7 kmh 30.03 in1016.9 mb - 0.00 in0.0 mm 0.00 in0.0 mm
03:30 PM 49.2°F9.6°C 41.6°F5.3°C 75% Calm Calm 1.2 mph1.9 kmh 30.02 in1016.6 mb - 0.00 in0.0 mm 0.00 in0.0 mm
03:40 PM 48.9°F9.4°C 41.3°F5.2°C 75% 2.3 mph SW3.7 kmh SW 2.3 mph3.7 kmh 30.02 in1016.6 mb - 0.00 in0.0 mm 0.00 in0.0 mm
03:50 PM 48.8°F9.3°C 41.9°F5.5°C 77% 3.5 mph W5.6 kmh W 2.3 mph3.7 kmh 30.02 in1016.6 mb - 0.00 in0.0 mm 0.00 in0.0 mm
04:00 PM 48.3°F9.1°C 42.7°F5.9°C 81% Calm Calm 2.3 mph3.7 kmh 30.02 in1016.6 mb - 0.00 in0.0 mm 0.00 in0.0 mm
04:10 PM 47.9°F8.8°C 43.9°F6.6°C 86% 2.3 mph WSW3.7 kmh WSW 2.3 mph3.7 kmh 30.02 in1016.6 mb - 0.00 in0.0 mm 0.00 in0.0 mm
04:20 PM 47.6°F8.7°C 44.5°F6.9°C 89% 2.3 mph WSW3.7 kmh WSW 2.3 mph3.7 kmh 30.02 in1016.6 mb - 0.00 in0.0 mm 0.00 in0.0 mm
04:30 PM 47.2°F8.4°C 45.0°F7.2°C 92% 2.3 mph WSW3.7 kmh WSW 2.3 mph3.7 kmh 30.02 in1016.6 mb - 0.00 in0.0 mm 0.00 in0.0 mm
04:40 PM 46.8°F8.2°C 45.2°F7.3°C 94% 3.5 mph WSW5.6 kmh WSW 2.3 mph3.7 kmh 30.02 in1016.6 mb - 0.01 in0.3 mm 0.01 in0.3 mm
04:50 PM 46.4°F8.0°C 45.3°F7.4°C 96% 2.3 mph WSW3.7 kmh WSW 2.3 mph3.7 kmh 30.02 in1016.6 mb - 0.01 in0.3 mm 0.01 in0.3 mm
05:00 PM 46.1°F7.8°C 45.3°F7.4°C 97% Calm Calm -- 30.03 in1016.9 mb - 0.02 in0.5 mm 0.02 in0.5 mm
05:10 PM 45.9°F7.7°C 45.1°F7.3°C 97% Calm Calm -- 30.02 in1016.6 mb - 0.03 in0.8 mm 0.03 in0.8 mm
05:20 PM 45.9°F7.7°C 45.1°F7.3°C 97% Calm Calm -- 30.03 in1016.9 mb - 0.03 in0.8 mm 0.03 in0.8 mm
05:30 PM 45.9°F7.7°C 45.1°F7.3°C 97% 3.5 mph WSW5.6 kmh WSW 2.3 mph3.7 kmh 30.03 in1016.9 mb - 0.03 in0.8 mm 0.03 in0.8 mm
05:40 PM 45.9°F7.7°C 45.1°F7.3°C 97% 1.2 mph WSW1.9 kmh WSW 2.3 mph3.7 kmh 30.03 in1016.9 mb - 0.02 in0.5 mm 0.03 in0.8 mm
05:50 PM 45.9°F7.7°C 45.1°F7.3°C 97% Calm Calm -- 30.03 in1016.9 mb - 0.02 in0.5 mm 0.03 in0.8 mm
06:00 PM 45.8°F7.7°C 45.0°F7.2°C 97% 2.3 mph WSW3.7 kmh WSW 2.3 mph3.7 kmh 30.03 in1016.9 mb - 0.01 in0.3 mm 0.03 in0.8 mm
06:10 PM 45.6°F7.6°C 44.8°F7.1°C 97% Calm Calm 2.3 mph3.7 kmh 30.04 in1017.3 mb - 0.00 in0.0 mm 0.03 in0.8 mm
06:20 PM 45.6°F7.6°C 44.8°F7.1°C 97% 2.3 mph SW3.7 kmh SW 2.3 mph3.7 kmh 30.04 in1017.3 mb - 0.01 in0.3 mm 0.04 in1.0 mm
06:30 PM 45.6°F7.6°C 44.8°F7.1°C 97% 2.3 mph SW3.7 kmh SW 2.3 mph3.7 kmh 30.04 in1017.3 mb - 0.01 in0.3 mm 0.04 in1.0 mm
06:40 PM 45.5°F7.5°C 44.7°F7.1°C 97% 1.2 mph SW1.9 kmh SW 1.2 mph1.9 kmh 30.05 in1017.6 mb - 0.01 in0.3 mm 0.04 in1.0 mm
06:50 PM 45.4°F7.4°C 44.6°F7.0°C 97% 2.3 mph SW3.7 kmh SW 2.3 mph3.7 kmh 30.05 in1017.6 mb - 0.01 in0.3 mm 0.04 in1.0 mm
07:00 PM 45.4°F7.4°C 44.6°F7.0°C 97% 3.5 mph SW5.6 kmh SW 2.3 mph3.7 kmh 30.05 in1017.6 mb - 0.02 in0.5 mm 0.05 in1.3 mm
07:10 PM 45.3°F7.4°C 44.5°F6.9°C 97% 2.3 mph WSW3.7 kmh WSW 2.3 mph3.7 kmh 30.05 in1017.6 mb - 0.02 in0.5 mm 0.05 in1.3 mm
07:20 PM 45.2°F7.3°C 44.4°F6.9°C 97% 3.5 mph WSW5.6 kmh WSW 2.3 mph3.7 kmh 30.06 in1017.9 mb - 0.02 in0.5 mm 0.06 in1.5 mm
07:30 PM 45.0°F7.2°C 44.2°F6.8°C 97% 3.5 mph SW5.6 kmh SW 2.3 mph3.7 kmh 30.06 in1017.9 mb - 0.03 in0.8 mm 0.07 in1.8 mm
07:40 PM 44.9°F7.2°C 43.8°F6.6°C 96% 1.2 mph SW1.9 kmh SW 2.3 mph3.7 kmh 30.07 in1018.3 mb - 0.03 in0.8 mm 0.07 in1.8 mm
07:50 PM 44.8°F7.1°C 43.7°F6.5°C 96% 2.3 mph SW3.7 kmh SW 2.3 mph3.7 kmh 30.07 in1018.3 mb - 0.03 in0.8 mm 0.07 in1.8 mm
08:00 PM 44.5°F6.9°C 43.4°F6.3°C 96% 2.3 mph SW3.7 kmh SW 2.3 mph3.7 kmh 30.08 in1018.6 mb - 0.02 in0.5 mm 0.07 in1.8 mm
08:10 PM 44.2°F6.8°C 43.2°F6.2°C 96% 2.3 mph SW3.7 kmh SW 2.3 mph3.7 kmh 30.08 in1018.6 mb - 0.02 in0.5 mm 0.07 in1.8 mm
08:20 PM 43.8°F6.6°C 42.8°F6.0°C 96% 1.2 mph WSW1.9 kmh WSW 1.2 mph1.9 kmh 30.09 in1019.0 mb - 0.01 in0.3 mm 0.07 in1.8 mm
08:30 PM 43.4°F6.3°C 42.3°F5.7°C 96% Calm Calm -- 30.09 in1019.0 mb - 0.00 in0.0 mm 0.07 in1.8 mm
08:40 PM 42.4°F5.8°C 41.4°F5.2°C 96% Calm Calm 2.3 mph3.7 kmh 30.09 in1019.0 mb - 0.00 in0.0 mm 0.07 in1.8 mm
08:50 PM 41.9°F5.5°C 40.8°F4.9°C 96% Calm Calm -- 30.10 in1019.3 mb - 0.00 in0.0 mm 0.07 in1.8 mm
09:00 PM 41.1°F5.1°C 40.1°F4.5°C 96% Calm Calm -- 30.10 in1019.3 mb - 0.00 in0.0 mm 0.07 in1.8 mm
09:10 PM 40.5°F4.7°C 39.4°F4.1°C 96% Calm Calm -- 30.10 in1019.3 mb - 0.00 in0.0 mm 0.07 in1.8 mm
09:20 PM 39.9°F4.4°C 38.9°F3.8°C 96% Calm Calm -- 30.10 in1019.3 mb - 0.00 in0.0 mm 0.07 in1.8 mm
09:30 PM 39.4°F4.1°C 38.4°F3.6°C 96% Calm Calm -- 30.10 in1019.3 mb - 0.00 in0.0 mm 0.07 in1.8 mm
09:40 PM 38.8°F3.8°C 37.8°F3.2°C 96% Calm Calm -- 30.10 in1019.3 mb - 0.00 in0.0 mm 0.07 in1.8 mm
09:50 PM 38.6°F3.7°C 37.6°F3.1°C 96% Calm Calm -- 30.11 in1019.6 mb - 0.00 in0.0 mm 0.07 in1.8 mm
10:00 PM 38.4°F3.6°C 37.4°F3.0°C 96% Calm Calm 2.3 mph3.7 kmh 30.11 in1019.6 mb - 0.00 in0.0 mm 0.07 in1.8 mm
10:10 PM 39.7°F4.3°C 38.6°F3.7°C 96% 1.2 mph WSW1.9 kmh WSW 2.3 mph3.7 kmh 30.11 in1019.6 mb - 0.00 in0.0 mm 0.07 in1.8 mm
10:20 PM 40.3°F4.6°C 39.3°F4.1°C 96% 1.2 mph SW1.9 kmh SW 2.3 mph3.7 kmh 30.11 in1019.6 mb - 0.00 in0.0 mm 0.07 in1.8 mm
10:30 PM 40.6°F4.8°C 39.5°F4.2°C 96% Calm Calm 2.3 mph3.7 kmh 30.12 in1020.0 mb - 0.00 in0.0 mm 0.07 in1.8 mm
10:40 PM 40.6°F4.8°C 39.5°F4.2°C 96% 2.3 mph NW3.7 kmh NW 2.3 mph3.7 kmh 30.12 in1020.0 mb - 0.00 in0.0 mm 0.07 in1.8 mm
10:50 PM 40.0°F4.4°C 39.0°F3.9°C 96% Calm Calm -- 30.12 in1020.0 mb - 0.00 in0.0 mm 0.07 in1.8 mm
11:00 PM 39.2°F4.0°C 38.2°F3.4°C 96% Calm Calm -- 30.13 in1020.3 mb - 0.00 in0.0 mm 0.07 in1.8 mm
11:10 PM 38.5°F3.6°C 37.5°F3.1°C 96% Calm Calm -- 30.13 in1020.3 mb - 0.00 in0.0 mm 0.07 in1.8 mm
11:20 PM 38.1°F3.4°C 37.1°F2.8°C 96% Calm Calm -- 30.14 in1020.7 mb - 0.00 in0.0 mm 0.07 in1.8 mm
11:30 PM 38.0°F3.3°C 36.9°F2.7°C 96% Calm Calm -- 30.15 in1021.0 mb - 0.00 in0.0 mm 0.07 in1.8 mm
11:40 PM 38.6°F3.7°C 37.6°F3.1°C 96% Calm Calm -- 30.16 in1021.3 mb - 0.00 in0.0 mm 0.07 in1.8 mm
11:50 PM 39.3°F4.1°C 38.3°F3.5°C 96% 1.2 mph WSW1.9 kmh WSW -- 30.16 in1021.3 mb - 0.00 in0.0 mm 0.07 in1.8 mm